KALS/ALS METAR and TAF weather

Enter ICAO airport designator
Station Type Date Time Source
KALS METAR 2018/06/25 01:52 UTC NOAA

KALS 250152Z AUTO 36013G21KT 10SM CLR 22/M08 A3011 RMK AO2 PK WND 01031/0057 SLP101 T02221083


Station Type Date Time Source
KALS Decoded METAR 2018/06/25 01:52 UTC NOAA

SAN LUIS VALLEY REGIONAL, CO, United States (KALS) 37-26N 105-52W 2299M
Jun 24, 2018 - 09:52 PM EDT / 2018.06.25 0152 UTC
Wind: from the N (360 degrees) at 15 MPH (13 KT) gusting to 24 MPH (21 KT):0
Visibility: 10 mile(s):0
Sky conditions: clear
Temperature: 72.0 F (22.2 C)
Dew Point: 17.1 F (-8.3 C)
Relative Humidity: 12%
Pressure (altimeter): 30.11 in. Hg (1019 hPa)
ob: KALS 250152Z AUTO 36013G21KT 10SM CLR 22/M08 A3011 RMK AO2 PK WND 01031/0057 SLP101 T02221083
cycle: 2

Station Type Date Time Source
KALS TAF 2018/06/24 20:12 UTC NOAA

TAF
AMD KALS 242010Z 2420/2518 25026G38KT P6SM SCT100
FM250200 07010KT P6SM FEW100
FM250500 VRB05KT P6SM SKC


Example: see airport list